Time;durP1;ratioP1;P1;durP2;ratioP2;P2;SDS_P1;SDS_P2;PMS_P1;PMS_P2;Temp;Humidity;BMP_temperature;BMP_pressure;BME280_temperature;BME280_humidity;BME280_pressure;Samples;Min_cycle;Max_cycle;Signal;HPM_P1;HPM_P2
2023/06/04 00:01:04;;;;;;;10.63;6.30;;;13.90;99.90;;;;;;5045084;28;20021;-72
2023/06/04 00:03:30;;;;;;;12.25;6.63;;;13.90;99.90;;;;;;5027972;28;20103;-72
2023/06/04 00:05:56;;;;;;;14.60;6.25;;;13.80;99.90;;;;;;5044837;28;20041;-72
2023/06/04 00:08:21;;;;;;;10.25;5.32;;;13.80;99.90;;;;;;5048388;28;20025;-74
2023/06/04 00:10:47;;;;;;;11.40;6.25;;;13.80;99.90;;;;;;5048573;28;20028;-72
2023/06/04 00:13:13;;;;;;;12.15;5.50;;;13.80;99.90;;;;;;5048739;28;20078;-72
2023/06/04 00:15:39;;;;;;;11.27;5.78;;;13.70;99.90;;;;;;5030310;28;20100;-72
2023/06/04 00:18:04;;;;;;;10.18;5.60;;;13.50;99.90;;;;;;5009809;28;20034;-72
2023/06/04 00:20:30;;;;;;;10.55;5.88;;;13.40;99.90;;;;;;5028103;28;20034;-72
2023/06/04 00:22:56;;;;;;;11.88;6.13;;;13.50;99.90;;;;;;5028725;28;20430;-72
2023/06/04 00:25:21;;;;;;;10.70;5.20;;;13.50;99.90;;;;;;5037660;28;20021;-74
2023/06/04 00:27:47;;;;;;;11.25;4.90;;;13.40;99.90;;;;;;5018268;28;20056;-72
2023/06/04 00:30:14;;;;;;;12.23;5.03;;;13.40;99.90;;;;;;5008671;28;20447;-72
2023/06/04 00:32:40;;;;;;;9.88;4.70;;;13.40;99.90;;;;;;5013662;28;20533;-72
2023/06/04 00:35:06;;;;;;;7.72;4.95;;;13.40;99.90;;;;;;5036445;28;20037;-72
2023/06/04 00:37:32;;;;;;;8.98;4.25;;;13.40;99.90;;;;;;5047456;28;20067;-72
2023/06/04 00:39:59;;;;;;;7.93;4.50;;;13.40;99.90;;;;;;5063590;28;20060;-72
2023/06/04 00:42:24;;;;;;;9.10;4.40;;;13.40;99.90;;;;;;5009865;28;20049;-75
2023/06/04 00:44:50;;;;;;;11.30;4.90;;;13.40;99.90;;;;;;5021659;28;20024;-72
2023/06/04 00:47:18;;;;;;;13.88;4.90;;;13.40;99.90;;;;;;5023022;28;20045;-72
2023/06/04 00:49:44;;;;;;;10.07;4.35;;;13.40;99.90;;;;;;5006790;28;20742;-73
2023/06/04 00:52:13;;;;;;;9.02;3.80;;;13.30;99.90;;;;;;5019862;28;20108;-72
2023/06/04 00:54:40;;;;;;;8.60;4.10;;;13.30;99.90;;;;;;5031533;28;20044;-72
2023/06/04 00:57:08;;;;;;;6.43;3.40;;;13.30;99.90;;;;;;5052037;28;20434;-71
2023/06/04 00:59:36;;;;;;;8.93;3.90;;;13.30;99.90;;;;;;5051230;28;20063;-73
2023/06/04 01:02:08;;;;;;;16.30;5.72;;;13.20;99.90;;;;;;5034560;28;20025;-72
2023/06/04 01:04:54;;;;;;;14.43;6.32;;;13.20;99.90;;;;;;5034673;28;20032;-72
2023/06/04 01:07:21;;;;;;;11.45;6.68;;;13.10;99.90;;;;;;5016902;28;20126;-72
2023/06/04 01:09:47;;;;;;;17.35;6.70;;;13.00;99.90;;;;;;5026703;28;20090;-73
2023/06/04 01:12:13;;;;;;;15.50;6.55;;;12.90;99.90;;;;;;5029602;28;20064;-72
2023/06/04 01:14:39;;;;;;;18.98;6.57;;;12.80;99.90;;;;;;5029917;28;20057;-72
2023/06/04 01:17:28;;;;;;;14.75;6.80;;;12.80;99.90;;;;;;5030542;28;20594;-72
2023/06/04 01:19:59;;;;;;;13.35;6.90;;;12.60;99.90;;;;;;5030651;28;20048;-72
2023/06/04 01:22:43;;;;;;;;;;;12.50;99.90;;;;;;5029780;28;20025;-74
2023/06/04 01:25:41;;;;;;;12.55;6.00;;;12.30;99.90;;;;;;5029576;28;19913;-73
2023/06/04 01:28:10;;;;;;;12.88;6.47;;;12.20;99.90;;;;;;5010687;28;20379;-72
2023/06/04 01:30:42;;;;;;;10.02;5.65;;;12.20;99.90;;;;;;5016234;28;20501;-72
2023/06/04 01:33:10;;;;;;;12.98;5.60;;;12.20;99.90;;;;;;5013843;28;20030;-74
2023/06/04 01:35:36;;;;;;;10.90;5.50;;;12.20;99.90;;;;;;5014169;28;20042;-72
2023/06/04 01:38:03;;;;;;;11.10;5.20;;;12.20;99.90;;;;;;5029378;28;20036;-72
2023/06/04 01:40:29;;;;;;;9.65;5.20;;;12.20;99.90;;;;;;5030007;28;20043;-74
2023/06/04 01:42:55;;;;;;;8.23;4.45;;;12.20;99.90;;;;;;5013469;28;20096;-73
2023/06/04 01:45:22;;;;;;;7.03;3.95;;;12.20;99.90;;;;;;5029708;28;20038;-72
2023/06/04 01:47:48;;;;;;;9.93;4.57;;;12.20;99.90;;;;;;5035865;28;20727;-72
2023/06/04 01:50:14;;;;;;;10.82;5.05;;;12.20;99.90;;;;;;5032950;28;20056;-72
2023/06/04 01:52:40;;;;;;;11.23;5.65;;;12.10;99.90;;;;;;5036516;28;20388;-72
2023/06/04 01:55:08;;;;;;;13.00;4.68;;;12.10;99.90;;;;;;5050519;28;20060;-72
2023/06/04 01:57:38;;;;;;;11.40;4.57;;;12.00;99.90;;;;;;5032890;28;20402;-72
2023/06/04 02:00:07;;;;;;;12.93;5.85;;;12.00;99.90;;;;;;5030104;28;20029;-72
2023/06/04 02:02:33;;;;;;;12.30;6.43;;;12.00;99.90;;;;;;5032830;28;20036;-72
2023/06/04 02:04:58;;;;;;;11.23;6.35;;;11.80;99.90;;;;;;5019289;28;20030;-72
2023/06/04 02:07:25;;;;;;;14.25;6.55;;;11.80;99.90;;;;;;5018589;28;20040;-72
2023/06/04 02:09:51;;;;;;;10.95;5.55;;;11.70;99.90;;;;;;5022184;28;20474;-71
2023/06/04 02:12:17;;;;;;;10.02;4.63;;;11.70;99.90;;;;;;5031385;28;20036;-72
2023/06/04 02:14:44;;;;;;;11.13;4.57;;;11.70;99.90;;;;;;5049830;28;20024;-72
2023/06/04 02:17:15;;;;;;;9.65;4.18;;;11.70;99.90;;;;;;5048141;28;20042;-72
2023/06/04 02:19:44;;;;;;;9.68;4.00;;;11.80;99.90;;;;;;5029736;28;20083;-72
2023/06/04 02:22:13;;;;;;;6.63;3.47;;;11.80;99.90;;;;;;5031383;28;20029;-72
2023/06/04 02:24:42;;;;;;;6.25;3.05;;;11.80;99.90;;;;;;5030962;28;20087;-72
2023/06/04 02:27:11;;;;;;;8.25;3.83;;;11.80;99.90;;;;;;5030428;28;20060;-72
2023/06/04 02:29:37;;;;;;;6.63;3.53;;;11.80;99.90;;;;;;5029713;28;20017;-72
2023/06/04 02:32:04;;;;;;;7.55;3.30;;;11.80;99.90;;;;;;5015347;28;20040;-72
2023/06/04 02:34:30;;;;;;;11.57;3.60;;;11.80;99.90;;;;;;5043705;28;20581;-74
2023/06/04 02:36:56;;;;;;;7.03;3.53;;;11.90;99.90;;;;;;5024946;28;20057;-73
2023/06/04 02:39:21;;;;;;;6.47;3.00;;;11.90;99.90;;;;;;5029945;28;20068;-71
2023/06/04 02:41:47;;;;;;;5.60;3.05;;;11.90;99.90;;;;;;5027679;28;20025;-72
2023/06/04 02:44:13;;;;;;;7.47;2.80;;;11.80;99.90;;;;;;5046754;28;20033;-72
2023/06/04 02:46:39;;;;;;;6.40;2.88;;;11.90;99.90;;;;;;5045973;28;20037;-72
2023/06/04 02:49:05;;;;;;;8.57;3.33;;;11.80;99.90;;;;;;5029927;28;20025;-72
2023/06/04 02:51:31;;;;;;;8.60;3.08;;;11.90;99.90;;;;;;5029571;28;20112;-74
2023/06/04 02:53:56;;;;;;;8.00;3.03;;;11.90;99.90;;;;;;5028169;28;20025;-72
2023/06/04 02:56:22;;;;;;;5.82;2.70;;;11.90;99.90;;;;;;5029015;28;20040;-71
2023/06/04 02:58:55;;;;;;;8.82;2.80;;;11.80;99.90;;;;;;5028584;28;20433;-72
2023/06/04 03:01:22;;;;;;;8.85;3.53;;;11.80;99.90;;;;;;5025842;28;20034;-74
2023/06/04 03:03:48;;;;;;;8.02;3.58;;;11.80;99.90;;;;;;5037735;28;20523;-72
2023/06/04 03:06:15;;;;;;;7.75;3.47;;;11.70;99.90;;;;;;5025475;28;20041;-72
2023/06/04 03:08:41;;;;;;;8.10;3.20;;;11.60;99.90;;;;;;5023010;28;20515;-72
2023/06/04 03:11:07;;;;;;;7.38;3.00;;;11.60;99.90;;;;;;5018431;28;20029;-73
2023/06/04 03:13:33;;;;;;;7.13;2.95;;;11.60;99.90;;;;;;5025144;28;20134;-75
2023/06/04 03:16:00;;;;;;;6.13;2.42;;;11.60;99.90;;;;;;5029996;28;20034;-72
2023/06/04 03:18:29;;;;;;;4.63;2.80;;;11.60;99.90;;;;;;5028888;28;20056;-72
2023/06/04 03:20:55;;;;;;;9.00;2.75;;;11.60;99.90;;;;;;5024278;28;20083;-72
2023/06/04 03:23:21;;;;;;;4.22;2.50;;;11.60;99.90;;;;;;5028613;28;20389;-72
2023/06/04 03:25:47;;;;;;;4.97;2.50;;;11.60;99.90;;;;;;5021758;28;20454;-72
2023/06/04 03:28:13;;;;;;;7.20;3.72;;;11.60;99.90;;;;;;5008105;28;20056;-72
2023/06/04 03:30:40;;;;;;;5.88;2.60;;;11.60;99.90;;;;;;5035355;28;20033;-72
2023/06/04 03:33:06;;;;;;;7.93;2.70;;;11.60;99.90;;;;;;5039350;28;20457;-73
2023/06/04 03:35:32;;;;;;;6.70;2.67;;;11.60;99.90;;;;;;5035429;28;20108;-74
2023/06/04 03:37:58;;;;;;;8.23;2.83;;;11.60;99.90;;;;;;5026138;28;20029;-72
2023/06/04 03:40:23;;;;;;;6.93;2.70;;;11.60;99.90;;;;;;5036589;28;20129;-72
2023/06/04 03:42:49;;;;;;;6.63;2.60;;;11.70;99.90;;;;;;5016760;28;20108;-72
2023/06/04 03:45:14;;;;;;;7.20;2.45;;;11.60;99.90;;;;;;5018069;28;20026;-72
2023/06/04 03:47:40;;;;;;;11.25;2.78;;;11.60;99.90;;;;;;5008512;28;20112;-72
2023/06/04 03:50:06;;;;;;;6.20;2.33;;;11.60;99.90;;;;;;5018872;28;20088;-72
2023/06/04 03:52:32;;;;;;;4.63;2.22;;;11.50;99.90;;;;;;5009390;28;20022;-73
2023/06/04 03:54:58;;;;;;;4.72;2.58;;;11.60;99.90;;;;;;5015059;28;20141;-72
2023/06/04 03:57:24;;;;;;;5.95;2.30;;;11.60;99.90;;;;;;5027886;28;20045;-72
2023/06/04 03:59:50;;;;;;;5.88;2.92;;;11.60;99.90;;;;;;5031837;28;20090;-72
2023/06/04 04:02:18;;;;;;;5.80;2.75;;;11.50;99.90;;;;;;5032188;28;20071;-71
2023/06/04 04:04:44;;;;;;;5.72;3.08;;;11.50;99.90;;;;;;5014234;28;20439;-72
2023/06/04 04:07:10;;;;;;;4.55;2.45;;;11.60;99.90;;;;;;5014319;28;20394;-72
2023/06/04 04:09:36;;;;;;;5.32;2.88;;;11.70;99.90;;;;;;5026338;28;20040;-74
2023/06/04 04:12:03;;;;;;;8.65;3.05;;;11.80;99.90;;;;;;5039509;28;20583;-72
2023/06/04 04:14:28;;;;;;;5.80;2.75;;;11.80;99.90;;;;;;5026516;28;20029;-72
2023/06/04 04:16:54;;;;;;;7.18;3.20;;;11.80;99.90;;;;;;5027740;28;20230;-72
2023/06/04 04:19:20;;;;;;;5.45;2.60;;;11.80;99.90;;;;;;5033747;28;20036;-72
2023/06/04 04:21:48;;;;;;;6.28;2.53;;;11.90;99.90;;;;;;5047633;28;20133;-72
2023/06/04 04:24:26;;;;;;;4.50;2.30;;;12.00;99.90;;;;;;5048243;28;20056;-72
2023/06/04 04:26:53;;;;;;;4.25;2.60;;;12.20;99.90;;;;;;5047647;28;20045;-72
2023/06/04 04:29:22;;;;;;;4.03;2.50;;;12.40;99.90;;;;;;5034027;28;20592;-72
2023/06/04 04:31:51;;;;;;;6.53;2.75;;;12.50;99.90;;;;;;5046988;28;20028;-72
2023/06/04 04:34:20;;;;;;;6.43;2.72;;;12.50;99.90;;;;;;5026303;28;20037;-72
2023/06/04 04:36:52;;;;;;;7.00;2.35;;;12.60;99.90;;;;;;5025235;28;20048;-72
2023/06/04 04:39:27;;;;;;;6.40;2.40;;;12.50;99.90;;;;;;5023398;28;20025;-72
2023/06/04 04:41:54;;;;;;;4.93;2.50;;;12.40;99.90;;;;;;5036140;28;20637;-72
2023/06/04 04:44:20;;;;;;;6.93;2.83;;;12.40;99.90;;;;;;5030221;28;20390;-72
2023/06/04 04:46:47;;;;;;;5.57;2.22;;;12.50;99.90;;;;;;5029419;28;20037;-72
2023/06/04 04:49:13;;;;;;;4.95;2.20;;;12.60;99.90;;;;;;5018989;28;20045;-72
2023/06/04 04:51:39;;;;;;;6.43;2.58;;;12.80;99.90;;;;;;5025303;28;20115;-75
2023/06/04 04:54:04;;;;;;;9.93;2.40;;;12.90;99.90;;;;;;5025446;28;20124;-72
2023/06/04 04:56:34;;;;;;;7.57;2.50;;;13.00;99.90;;;;;;5031363;28;20052;-73
2023/06/04 04:59:00;;;;;;;6.10;2.70;;;13.20;99.90;;;;;;5028237;28;20044;-72
2023/06/04 05:01:26;;;;;;;8.25;2.28;;;13.20;99.90;;;;;;5025821;28;20038;-72
2023/06/04 05:03:52;;;;;;;4.50;2.45;;;13.40;99.90;;;;;;5028006;28;20105;-73
2023/06/04 05:06:17;;;;;;;4.90;2.20;;;13.60;99.90;;;;;;5029872;28;20029;-72
2023/06/04 05:08:43;;;;;;;5.15;2.10;;;13.70;99.90;;;;;;5020016;28;20044;-75
2023/06/04 05:11:09;;;;;;;13.23;2.50;;;13.90;99.90;;;;;;5026585;28;20041;-73
2023/06/04 05:13:36;;;;;;;6.47;2.13;;;14.00;99.70;;;;;;5031695;28;20075;-73
2023/06/04 05:16:06;;;;;;;4.82;2.28;;;14.00;99.10;;;;;;5038624;28;20529;-72
2023/06/04 05:18:32;;;;;;;3.17;1.90;;;14.10;99.20;;;;;;5024719;28;20118;-72
2023/06/04 05:21:02;;;;;;;5.05;2.20;;;14.20;99.60;;;;;;5020306;28;20030;-73
2023/06/04 05:23:29;;;;;;;4.63;2.30;;;14.20;98.50;;;;;;5029364;28;20024;-73
2023/06/04 05:25:55;;;;;;;4.10;2.10;;;14.20;99.10;;;;;;5028607;28;20052;-73
2023/06/04 05:28:24;;;;;;;3.88;2.17;;;14.40;99.80;;;;;;5015493;28;20466;-72
2023/06/04 05:30:49;;;;;;;4.03;2.17;;;14.50;99.20;;;;;;5030599;28;20033;-72
2023/06/04 05:33:18;;;;;;;6.38;2.10;;;14.70;98.80;;;;;;5029159;28;20119;-73
2023/06/04 05:35:57;;;;;;;5.32;2.05;;;14.80;99.10;;;;;;5027801;28;20033;-75
2023/06/04 05:38:27;;;;;;;6.63;2.13;;;14.80;97.70;;;;;;5041013;28;20642;-72
2023/06/04 05:40:55;;;;;;;6.70;2.30;;;14.90;97.50;;;;;;5020994;28;20022;-72
2023/06/04 05:43:21;;;;;;;7.65;2.42;;;15.00;97.70;;;;;;5011571;28;20397;-72
2023/06/04 05:45:47;;;;;;;6.28;2.30;;;15.10;98.00;;;;;;5021001;28;20355;-72
2023/06/04 05:48:13;;;;;;;6.22;1.92;;;15.30;97.60;;;;;;5027182;28;20031;-72
2023/06/04 05:50:39;;;;;;;7.13;2.50;;;15.30;96.50;;;;;;5029106;28;20385;-71
2023/06/04 05:53:05;;;;;;;6.53;2.20;;;15.40;96.60;;;;;;5018134;28;20390;-71
2023/06/04 05:55:30;;;;;;;4.78;2.42;;;15.60;96.90;;;;;;5030623;28;20053;-71
2023/06/04 05:57:56;;;;;;;4.82;1.73;;;15.70;96.90;;;;;;5030226;28;20034;-72
2023/06/04 06:00:22;;;;;;;9.27;2.55;;;15.80;96.40;;;;;;5029928;28;20116;-72
2023/06/04 06:02:49;;;;;;;9.35;2.30;;;15.90;95.80;;;;;;5050028;28;20031;-71
2023/06/04 06:05:15;;;;;;;5.50;2.17;;;16.00;97.40;;;;;;5050742;28;20519;-71
2023/06/04 06:07:41;;;;;;;5.53;2.13;;;16.00;95.60;;;;;;5050454;28;20033;-73
2023/06/04 06:10:08;;;;;;;5.55;2.40;;;16.10;96.00;;;;;;5050112;28;20025;-72
2023/06/04 06:12:33;;;;;;;7.05;2.22;;;16.20;95.80;;;;;;5048381;28;20435;-71
2023/06/04 06:14:59;;;;;;;6.82;2.10;;;16.40;95.60;;;;;;5043854;28;20104;-72
2023/06/04 06:17:25;;;;;;;7.82;2.40;;;16.60;95.80;;;;;;5030447;28;20033;-72
2023/06/04 06:19:52;;;;;;;5.60;2.42;;;16.80;95.90;;;;;;5029528;28;20375;-72
2023/06/04 06:22:18;;;;;;;5.03;2.00;;;17.00;95.10;;;;;;5030226;28;20028;-72
2023/06/04 06:24:43;;;;;;;4.25;2.00;;;17.10;94.60;;;;;;5036315;28;20029;-73
2023/06/04 06:27:10;;;;;;;3.63;1.90;;;17.20;94.60;;;;;;5049913;28;20045;-71
2023/06/04 06:29:36;;;;;;;9.32;2.25;;;17.30;93.30;;;;;;5048980;28;20490;-72
2023/06/04 06:32:02;;;;;;;5.53;2.20;;;17.20;93.90;;;;;;5049506;28;20037;-72
2023/06/04 06:34:28;;;;;;;7.22;2.45;;;17.20;93.90;;;;;;5049908;28;20108;-72
2023/06/04 06:36:54;;;;;;;3.38;2.00;;;17.20;93.00;;;;;;5064569;28;20039;-71
2023/06/04 06:39:19;;;;;;;6.38;2.10;;;17.00;93.90;;;;;;5047977;28;20033;-71
2023/06/04 06:41:46;;;;;;;5.03;2.67;;;17.00;93.50;;;;;;5044271;28;20473;-73
2023/06/04 06:44:11;;;;;;;8.98;2.20;;;17.00;93.60;;;;;;5019185;28;20034;-71
2023/06/04 06:46:37;;;;;;;5.55;2.70;;;17.00;93.60;;;;;;5028199;28;20079;-71
2023/06/04 06:49:03;;;;;;;5.88;2.10;;;17.10;94.50;;;;;;5025860;28;20115;-72
2023/06/04 06:51:28;;;;;;;7.85;2.47;;;17.20;93.40;;;;;;5029225;28;20068;-71
2023/06/04 06:53:54;;;;;;;6.88;2.25;;;17.20;93.00;;;;;;5027890;28;20026;-72
2023/06/04 06:56:20;;;;;;;5.72;2.47;;;17.30;93.30;;;;;;5029854;28;20529;-72
2023/06/04 06:58:45;;;;;;;5.75;2.10;;;17.40;93.40;;;;;;5029498;28;20034;-73
2023/06/04 07:01:12;;;;;;;12.63;2.20;;;17.70;94.10;;;;;;5021521;28;20386;-71
2023/06/04 07:03:39;;;;;;;4.05;2.10;;;17.90;93.40;;;;;;5018694;28;20105;-72
2023/06/04 07:06:05;;;;;;;4.47;2.20;;;18.10;93.40;;;;;;5011099;28;20040;-72
2023/06/04 07:08:31;;;;;;;4.93;2.17;;;18.40;92.10;;;;;;5029920;28;20398;-72
2023/06/04 07:10:57;;;;;;;11.77;2.38;;;18.40;92.50;;;;;;5028251;28;20032;-71
2023/06/04 07:13:23;;;;;;;5.63;2.15;;;18.50;91.90;;;;;;5027017;28;20553;-71
2023/06/04 07:15:49;;;;;;;11.27;2.45;;;18.40;92.40;;;;;;5022036;28;20128;-73
2023/06/04 07:18:14;;;;;;;7.88;2.85;;;18.50;92.70;;;;;;5016455;28;20084;-72
2023/06/04 07:20:40;;;;;;;6.55;2.13;;;18.60;92.40;;;;;;5031724;28;20474;-72
2023/06/04 07:23:06;;;;;;;5.30;2.42;;;18.70;92.30;;;;;;5028400;28;20102;-73
2023/06/04 07:25:32;;;;;;;4.13;2.28;;;18.90;92.10;;;;;;5015644;28;20516;-72
2023/06/04 07:27:58;;;;;;;11.02;2.50;;;19.10;91.30;;;;;;5010389;28;20045;-71
2023/06/04 07:30:26;;;;;;;9.65;2.75;;;19.10;91.50;;;;;;5009278;28;20041;-72
2023/06/04 07:32:52;;;;;;;6.82;2.50;;;19.20;91.10;;;;;;5011215;28;20080;-72
2023/06/04 07:35:18;;;;;;;10.60;2.63;;;19.40;91.60;;;;;;5019126;28;20029;-72
2023/06/04 07:37:45;;;;;;;4.95;2.67;;;19.60;91.30;;;;;;5029110;28;20473;-72
2023/06/04 07:40:11;;;;;;;6.93;2.65;;;19.70;90.60;;;;;;5024854;28;20037;-72
2023/06/04 07:42:37;;;;;;;5.75;2.55;;;19.60;89.40;;;;;;5013232;28;20033;-72
2023/06/04 07:45:04;;;;;;;7.47;2.78;;;19.80;90.50;;;;;;5030779;28;20029;-73
2023/06/04 07:47:29;;;;;;;6.70;3.25;;;19.90;91.00;;;;;;5037230;28;20040;-73
2023/06/04 07:49:55;;;;;;;4.78;2.47;;;20.00;90.40;;;;;;5008454;28;20026;-72
2023/06/04 07:52:21;;;;;;;8.60;2.50;;;20.10;89.60;;;;;;5019741;28;20033;-73
2023/06/04 07:54:47;;;;;;;4.47;2.63;;;20.20;90.60;;;;;;5028721;28;20047;-72
2023/06/04 07:57:12;;;;;;;8.20;2.95;;;20.40;89.30;;;;;;5027981;28;20128;-72
2023/06/04 07:59:38;;;;;;;11.35;2.80;;;20.30;89.30;;;;;;5027036;28;20053;-72
2023/06/04 08:02:04;;;;;;;5.05;2.60;;;20.30;87.40;;;;;;5025255;28;20111;-73
2023/06/04 08:04:31;;;;;;;4.82;2.80;;;20.40;90.30;;;;;;5017616;28;20030;-73
2023/06/04 08:06:56;;;;;;;6.43;2.95;;;20.60;88.90;;;;;;5023053;28;20087;-73
2023/06/04 08:09:22;;;;;;;8.10;3.00;;;20.90;85.80;;;;;;5018077;28;20034;-73
2023/06/04 08:11:49;;;;;;;6.70;2.80;;;20.90;89.30;;;;;;5018243;28;20507;-73
2023/06/04 08:14:14;;;;;;;6.35;2.90;;;21.00;86.40;;;;;;5020784;28;20034;-73
2023/06/04 08:16:40;;;;;;;8.35;2.97;;;21.00;87.20;;;;;;5036784;28;20053;-72
2023/06/04 08:19:07;;;;;;;6.50;2.47;;;21.30;88.70;;;;;;5024616;28;20172;-73
2023/06/04 08:21:34;;;;;;;5.68;2.90;;;21.50;85.70;;;;;;5028378;28;20030;-72
2023/06/04 08:24:00;;;;;;;7.30;2.80;;;21.60;84.50;;;;;;5027950;28;20036;-73
2023/06/04 08:26:26;;;;;;;5.50;2.55;;;21.50;82.60;;;;;;5026370;28;20116;-72
2023/06/04 08:28:53;;;;;;;4.25;2.72;;;21.50;81.80;;;;;;5024805;28;20033;-74
2023/06/04 08:31:18;;;;;;;6.88;2.70;;;21.60;79.20;;;;;;5008537;28;20036;-73
2023/06/04 08:33:47;;;;;;;7.35;2.60;;;21.80;80.70;;;;;;5014901;28;20037;-73
2023/06/04 08:36:14;;;;;;;6.32;2.83;;;21.90;83.30;;;;;;5012608;28;20824;-73
2023/06/04 08:38:40;;;;;;;13.00;2.95;;;22.00;78.90;;;;;;5007479;28;20030;-72
2023/06/04 08:41:15;;;;;;;5.18;2.90;;;22.20;80.00;;;;;;5015484;28;20044;-72
2023/06/04 08:43:43;;;;;;;7.75;2.58;;;21.80;75.10;;;;;;5024227;28;20029;-73
2023/06/04 08:46:11;;;;;;;8.57;3.30;;;21.80;78.80;;;;;;5019094;28;20042;-73
2023/06/04 08:48:38;;;;;;;10.05;2.97;;;22.00;75.40;;;;;;5026413;28;20040;-73
2023/06/04 08:51:09;;;;;;;7.10;3.17;;;22.10;77.10;;;;;;5025532;28;20026;-72
2023/06/04 08:53:36;;;;;;;6.07;2.42;;;22.10;73.80;;;;;;5027300;28;20034;-72
2023/06/04 08:56:02;;;;;;;5.00;2.53;;;22.20;69.80;;;;;;5027398;28;20046;-72
2023/06/04 08:58:32;;;;;;;3.60;2.25;;;22.20;68.80;;;;;;5028259;28;20064;-73
2023/06/04 09:01:00;;;;;;;8.23;2.90;;;22.20;69.10;;;;;;5024633;28;20061;-73
2023/06/04 09:03:27;;;;;;;3.83;2.53;;;22.10;68.40;;;;;;5017484;28;20042;-72
2023/06/04 09:05:53;;;;;;;9.23;3.15;;;22.30;69.90;;;;;;5007969;28;20242;-74
2023/06/04 09:08:21;;;;;;;7.53;3.10;;;22.50;69.80;;;;;;5021410;28;20029;-72
2023/06/04 09:10:51;;;;;;;7.53;2.70;;;22.70;71.40;;;;;;5023799;28;20033;-72
2023/06/04 09:13:18;;;;;;;;;;;22.60;70.60;;;;;;5026362;28;20120;-73
2023/06/04 09:15:44;;;;;;;10.30;2.85;;;22.90;71.70;;;;;;5030538;28;19912;-72
2023/06/04 09:18:10;;;;;;;8.63;3.17;;;22.90;69.00;;;;;;5028177;28;20029;-73
2023/06/04 09:20:35;;;;;;;7.65;3.15;;;22.80;69.90;;;;;;5026115;28;20104;-72
2023/06/04 09:23:01;;;;;;;5.55;3.10;;;22.90;69.10;;;;;;5034355;28;20033;-73
2023/06/04 09:25:27;;;;;;;11.02;2.80;;;23.00;71.70;;;;;;5019978;28;20497;-72
2023/06/04 09:27:57;;;;;;;7.47;3.00;;;23.20;68.80;;;;;;5011454;28;20124;-75
2023/06/04 09:30:23;;;;;;;5.30;3.27;;;23.10;69.70;;;;;;5027812;28;20032;-74
2023/06/04 09:32:49;;;;;;;5.82;2.63;;;23.20;67.70;;;;;;5025879;28;20036;-74
2023/06/04 09:35:19;;;;;;;4.07;2.80;;;23.10;70.70;;;;;;5029593;28;20029;-73
2023/06/04 09:37:56;;;;;;;6.90;2.97;;;23.40;69.50;;;;;;5039448;28;20048;-73
2023/06/04 09:40:22;;;;;;;9.32;3.15;;;23.60;68.20;;;;;;5028692;28;20161;-74
2023/06/04 09:42:54;;;;;;;5.30;3.20;;;23.30;68.10;;;;;;5028993;28;20029;-73
2023/06/04 09:45:34;;;;;;;11.43;3.30;;;23.40;71.30;;;;;;5030297;28;20033;-74
2023/06/04 09:48:00;;;;;;;5.28;2.58;;;23.70;68.20;;;;;;5026862;28;20072;-73
2023/06/04 09:50:28;;;;;;;5.93;3.15;;;23.60;66.60;;;;;;5021403;28;20367;-74
2023/06/04 09:52:54;;;;;;;5.85;3.05;;;23.60;65.40;;;;;;5035239;28;20057;-74
2023/06/04 09:55:22;;;;;;;9.13;3.45;;;23.70;66.50;;;;;;5025336;28;20052;-73
2023/06/04 09:57:49;;;;;;;9.48;3.50;;;24.00;66.20;;;;;;5030641;28;20046;-72
2023/06/04 10:00:17;;;;;;;10.73;3.28;;;24.20;62.80;;;;;;5035557;28;20144;-73
2023/06/04 10:02:46;;;;;;;9.40;3.25;;;24.00;64.30;;;;;;5027141;28;20451;-74
2023/06/04 10:05:14;;;;;;;17.65;3.63;;;24.20;62.00;;;;;;5016990;28;20390;-75
2023/06/04 10:07:44;;;;;;;4.47;3.17;;;24.40;65.70;;;;;;5023897;28;20117;-72
2023/06/04 10:10:18;;;;;;;;;;;24.20;61.60;;;;;;5026017;28;20117;-73
2023/06/04 10:12:45;;;;;;;11.63;3.65;;;24.20;61.20;;;;;;5029643;28;19913;-72
2023/06/04 10:15:12;;;;;;;5.75;3.20;;;24.30;61.60;;;;;;5068705;28;20520;-74
2023/06/04 10:17:39;;;;;;;6.93;3.40;;;24.20;63.20;;;;;;5042983;28;20033;-72
2023/06/04 10:20:08;;;;;;;10.60;3.50;;;24.40;62.80;;;;;;5009964;28;20097;-74
2023/06/04 10:22:34;;;;;;;6.18;3.53;;;24.80;62.30;;;;;;5018335;28;20083;-73
2023/06/04 10:25:00;;;;;;;9.60;3.60;;;25.00;61.90;;;;;;5028621;28;20026;-75
2023/06/04 10:27:26;;;;;;;6.28;3.30;;;25.00;59.20;;;;;;5029320;28;20474;-73
2023/06/04 10:29:52;;;;;;;6.05;3.25;;;25.00;62.60;;;;;;5022843;28;20041;-73
2023/06/04 10:32:19;;;;;;;6.57;3.30;;;25.10;59.10;;;;;;5016030;28;20030;-73
2023/06/04 10:34:46;;;;;;;6.40;3.78;;;25.30;58.50;;;;;;5019714;28;20048;-74
2023/06/04 10:37:22;;;;;;;7.63;3.60;;;25.20;57.90;;;;;;5026768;28;20051;-76
2023/06/04 10:39:52;;;;;;;6.82;4.03;;;24.90;55.50;;;;;;5029193;28;20056;-75
2023/06/04 10:42:20;;;;;;;10.18;3.75;;;24.80;55.50;;;;;;5028155;28;20026;-75
2023/06/04 10:44:48;;;;;;;8.63;3.50;;;24.90;57.20;;;;;;5022638;28;20060;-79
2023/06/04 10:47:23;;;;;;;10.95;4.07;;;25.00;57.20;;;;;;5018041;28;20080;-76
2023/06/04 10:49:53;;;;;;;5.47;3.60;;;25.00;57.40;;;;;;5019402;28;20033;-76
2023/06/04 10:52:20;;;;;;;6.28;3.65;;;25.20;56.30;;;;;;5016706;28;20163;-77
2023/06/04 10:54:48;;;;;;;5.25;3.70;;;25.20;61.20;;;;;;5027648;28;20069;-75
2023/06/04 10:57:17;;;;;;;5.70;3.55;;;25.40;56.80;;;;;;5009020;28;20153;-76
2023/06/04 10:59:59;;;;;;;10.70;4.18;;;25.00;56.30;;;;;;5022317;28;20048;-75
2023/06/04 11:02:26;;;;;;;9.40;3.88;;;24.90;54.40;;;;;;5017919;28;20104;-76
2023/06/04 11:05:05;;;;;;;8.98;3.47;;;24.90;53.90;;;;;;5025752;28;20470;-76
2023/06/04 11:07:45;;;;;;;9.27;3.88;;;25.30;57.40;;;;;;5028899;28;20038;-76
2023/06/04 11:10:12;;;;;;;8.20;3.80;;;25.50;54.60;;;;;;5020179;28;20030;-76
2023/06/04 11:12:50;;;;;;;6.00;3.65;;;25.40;54.80;;;;;;5025844;28;20060;-75
2023/06/04 11:15:16;;;;;;;10.38;3.70;;;25.30;54.40;;;;;;5031833;28;20548;-76
2023/06/04 11:17:58;;;;;;;6.95;3.80;;;25.70;55.90;;;;;;5037745;28;20055;-77
2023/06/04 11:20:24;;;;;;;8.95;3.85;;;26.00;54.00;;;;;;5024306;28;20025;-75
2023/06/04 11:23:02;;;;;;;5.88;3.80;;;25.90;54.20;;;;;;5028536;28;20421;-76
2023/06/04 11:25:30;;;;;;;7.85;3.75;;;25.80;54.20;;;;;;5043368;28;20037;-76
2023/06/04 11:27:56;;;;;;;10.20;4.20;;;25.90;55.00;;;;;;5044734;28;20033;-76
2023/06/04 11:30:22;;;;;;;7.30;3.80;;;25.90;53.40;;;;;;5025675;28;20490;-76
2023/06/04 11:32:48;;;;;;;8.88;3.72;;;26.00;55.90;;;;;;5026961;28;20071;-76
2023/06/04 11:35:14;;;;;;;8.30;3.88;;;26.40;53.30;;;;;;5015405;28;20117;-77
2023/06/04 11:37:40;;;;;;;7.15;3.67;;;26.60;54.10;;;;;;5031375;28;20156;-76
2023/06/04 11:40:19;;;;;;;10.75;3.45;;;26.90;53.40;;;;;;5015612;28;20509;-77
2023/06/04 11:42:49;;;;;;;6.07;3.85;;;27.00;52.20;;;;;;5028025;28;20034;-75
2023/06/04 11:45:18;;;;;;;6.70;3.58;;;26.40;50.80;;;;;;5031056;28;20500;-77
2023/06/04 11:47:48;;;;;;;5.65;3.85;;;26.40;53.00;;;;;;5029971;28;20088;-76
2023/06/04 11:50:14;;;;;;;7.70;3.72;;;26.70;51.40;;;;;;5018382;28;20044;-78
2023/06/04 11:52:41;;;;;;;7.50;4.00;;;26.50;49.70;;;;;;5034270;28;20078;-75
2023/06/04 11:55:11;;;;;;;9.68;3.70;;;26.60;54.30;;;;;;5013663;28;20053;-73
2023/06/04 11:57:40;;;;;;;6.78;3.83;;;26.80;51.80;;;;;;5028531;28;20386;-75
2023/06/04 12:00:11;;;;;;;9.35;3.75;;;26.90;52.70;;;;;;5025535;28;20551;-75
2023/06/04 12:02:37;;;;;;;6.70;4.05;;;26.80;53.70;;;;;;5031945;28;20037;-75
2023/06/04 12:05:18;;;;;;;6.90;3.85;;;26.90;52.90;;;;;;5011848;28;20094;-79
2023/06/04 12:07:44;;;;;;;10.00;3.88;;;26.90;50.30;;;;;;5026889;28;20034;-75
2023/06/04 12:10:11;;;;;;;6.72;3.60;;;26.80;55.30;;;;;;5027644;28;20385;-77
2023/06/04 12:12:37;;;;;;;6.18;3.78;;;26.60;51.40;;;;;;5027867;28;20098;-76
2023/06/04 12:15:05;;;;;;;5.20;3.80;;;26.60;52.00;;;;;;5028458;28;20038;-79
2023/06/04 12:17:32;;;;;;;6.03;3.80;;;26.50;51.70;;;;;;5018728;28;20037;-75
2023/06/04 12:19:58;;;;;;;8.20;4.10;;;26.60;51.80;;;;;;5021053;28;20041;-76
2023/06/04 12:22:25;;;;;;;10.32;3.95;;;26.60;52.00;;;;;;5014950;28;20044;-77
2023/06/04 12:24:55;;;;;;;6.05;3.80;;;26.80;49.90;;;;;;5024162;28;20021;-76
2023/06/04 12:27:23;;;;;;;8.77;3.40;;;26.40;50.00;;;;;;5016946;28;20038;-75
2023/06/04 12:30:05;;;;;;;7.05;3.85;;;26.10;51.10;;;;;;5027209;28;20488;-76
2023/06/04 12:32:35;;;;;;;7.18;3.70;;;26.20;51.00;;;;;;5035182;28;20124;-75
2023/06/04 12:35:01;;;;;;;9.35;4.20;;;26.40;52.10;;;;;;5027694;28;20109;-76
2023/06/04 12:37:27;;;;;;;8.63;4.45;;;26.40;48.90;;;;;;5024555;28;20037;-76
2023/06/04 12:39:54;;;;;;;6.30;3.88;;;26.20;49.60;;;;;;5016197;28;20110;-74
2023/06/04 12:42:20;;;;;;;6.43;3.67;;;26.50;49.70;;;;;;5024805;28;20159;-76
2023/06/04 12:44:46;;;;;;;7.13;4.22;;;26.50;49.10;;;;;;5030896;28;20474;-75
2023/06/04 12:47:12;;;;;;;8.10;3.90;;;26.60;48.60;;;;;;5031268;28;20040;-75